ADDS TAF Board (Experimental) INFO Settings
IDs: Format: Expanded Condensed

KPHL - Philadelphia Intl, PA, US

Issued at 1501 UTC 27 Aug 2016
Updated at 1650 UTC 27 Aug 2016
Time1554Z 27/17Z 27/18Z 27/19Z 27/20Z 27/21Z 27/22Z 27/23Z 28/00Z 28/01Z 28/02Z 28/03Z 28/04Z 28/05Z
Type OBS PRVL PRVL PRVL PRVL PRVL PRVL PRVL PRVL PRVL PRVL PRVL PRVL PRVL
VIS 10 >6 >6 >6 >6 >6 >6 >6 >6 >6 >6 >6 >6 >6
CIG -- -- -- -- -- -- -- -- -- -- -- -- -- --
Cover SCT FEW FEW FEW FEW FEW SCT SCT SCT SCT SCT SCT SCT SCT
FltCat VFR VFR VFR VFR VFR VFR VFR VFR VFR VFR VFR VFR VFR VFR
WX -- -- -- -- -- -- -- -- -- -- -- -- -- --
WDir 100 70 70 70 70 70 130 130 130 130 VRB VRB VRB VRB
WSpd 6 9 9 9 9 9 4 4 4 4 3 3 3 3
WGst -- -- -- -- -- -- -- -- -- -- -- -- -- --
R08/26
XWnd -3 1 1 1 1 1 -3 -3 -3 -3 VRB VRB VRB VRB
HWnd 5 9 9 9 9 9 2 2 2 2 VRB VRB VRB VRB
R09/27
XWnd -3 1 1 1 1 1 -3 -3 -3 -3 VRB VRB VRB VRB
HWnd 5 9 9 9 9 9 2 2 2 2 VRB VRB VRB VRB
R17/35
XWnd 5 9 9 9 9 9 2 2 2 2 VRB VRB VRB VRB
HWnd 3 0 0 0 0 0 3 3 3 3 VRB VRB VRB VRB

Raw TAF
KPHL 271501Z 2715/2818 07009KT P6SM FEW040
  FM272200 13004KT P6SM SCT250
  FM280200 VRB03KT P6SM SCT250


Raw METAR
KPHL 271554Z 10006KT 10SM SCT260 31/15 A3018 RMK AO2 SLP220 T03060150 $
KPHL 271454Z 08009KT 10SM SCT260 29/16 A3018 RMK AO2 SLP221 T02940156 50005 $
KPHL 271354Z 06008KT 040V100 10SM FEW260 28/16 A3019 RMK AO2 SLP222 T02830161 $

METAR Board
Radar Display
Forecast Discussion

TAF Board Legend

Potential Impact
Threat None Slight Moderate High
Visibility (sm) ≥5.1 5.1>X≥3 3>X≥1 <1
Ceiling (100 ft) ≥30.1 30.1>X≥10 10>X≥5 <5
Wind Speed (kt) <10 10≤X<20 20≤X<30 ≥30
Wind Gust (kt) <15 15≤X<25 25≤X<35 ≥35
Weather No Wx Reported VCTS,-TS,-FZRA,SN TS,FZRA +TS,+FZRA,+SN